Terminal Aerodrome Forecast
Issued by NWS Missoula, MT

Home | Current Version | Previous Version | Text Only | Print | Product List | Glossary On
Versions: 1 2 3 4 5 6 7 8 9 10 11 12 13
000
FTUS45 KMSO 070539
TAFMSO
TAF
KMSO 070539Z 0706/0806 35007KT P6SM SKC
     FM071900 33010KT P6SM VCSH SCT080
     FM080000 07010G18KT P6SM VCSH SCT080=

USA.gov is the U.S. government's official web portal to all federal, state and local government web resources and services.